Time;durP1;ratioP1;P1;durP2;ratioP2;P2;SDS_P1;SDS_P2;PMS_P1;PMS_P2;Temp;Humidity;BMP_temperature;BMP_pressure;BME280_temperature;BME280_humidity;BME280_pressure;Samples;Min_cycle;Max_cycle;Signal;HPM_P1;HPM_P2
2021/01/17 00:02:20;;;;;;;13.07;6.03;;;-0.80;91.10;;;;;;5001203;28;20427;-66
2021/01/17 00:04:46;;;;;;;15.43;8.47;;;;;;;;;;5000853;28;20211;-65
2021/01/17 00:07:12;;;;;;;16.67;8.90;;;-0.80;91.00;;;;;;5004937;23;20267;-66
2021/01/17 00:09:37;;;;;;;14.90;7.50;;;-0.80;91.20;;;;;;5025095;23;20230;-65
2021/01/17 00:12:04;;;;;;;12.50;7.80;;;-0.80;91.20;;;;;;5033387;23;20824;-66
2021/01/17 00:14:32;;;;;;;12.67;7.10;;;-0.70;90.90;;;;;;5012193;23;20256;-66
2021/01/17 00:16:58;;;;;;;11.93;8.00;;;-0.80;90.70;;;;;;5003271;28;20179;-66
2021/01/17 00:19:24;;;;;;;14.73;8.77;;;-0.70;91.10;;;;;;4998609;23;20541;-65
2021/01/17 00:21:50;;;;;;;16.17;7.27;;;-0.80;90.70;;;;;;4994129;23;20232;-65
2021/01/17 00:24:15;;;;;;;17.97;9.00;;;-0.80;90.90;;;;;;4985022;28;20195;-66
2021/01/17 00:26:41;;;;;;;18.73;8.47;;;-0.80;90.90;;;;;;5009298;23;20244;-66
2021/01/17 00:29:06;;;;;;;12.53;7.40;;;-0.70;91.00;;;;;;5001299;28;20254;-65
2021/01/17 00:31:36;;;;;;;13.57;7.47;;;-0.70;90.70;;;;;;5013868;22;20242;-66
2021/01/17 00:34:02;;;;;;;12.33;6.87;;;-0.80;90.20;;;;;;5001268;28;20192;-65
2021/01/17 00:36:28;;;;;;;8.23;5.03;;;-0.90;90.30;;;;;;5002271;22;20235;-66
2021/01/17 00:38:54;;;;;;;14.10;8.17;;;-1.00;90.60;;;;;;4988716;28;20211;-65
2021/01/17 00:41:28;;;;;;;13.20;8.60;;;-0.80;90.90;;;;;;5006045;23;20222;-66
2021/01/17 00:43:53;;;;;;;16.63;8.67;;;-0.90;90.80;;;;;;5011188;22;20234;-65
2021/01/17 00:46:19;;;;;;;17.00;8.67;;;;;;;;;;5008905;22;20585;-65
2021/01/17 00:48:45;;;;;;;12.53;6.83;;;-0.90;91.40;;;;;;5008717;22;20324;-66
2021/01/17 00:51:11;;;;;;;13.20;8.67;;;;;;;;;;5001520;22;20228;-65
2021/01/17 00:53:36;;;;;;;11.83;5.50;;;-1.00;91.60;;;;;;4987627;28;20272;-65
2021/01/17 00:56:02;;;;;;;14.07;7.97;;;-1.00;92.10;;;;;;4988149;28;20654;-65
2021/01/17 00:58:27;;;;;;;11.33;7.23;;;-1.00;92.20;;;;;;5013076;22;20297;-65
2021/01/17 01:00:53;;;;;;;15.03;7.43;;;-1.00;92.10;;;;;;5008961;22;20770;-65
2021/01/17 01:03:19;;;;;;;9.77;6.00;;;-1.00;91.80;;;;;;5005528;22;20258;-65
2021/01/17 01:05:45;;;;;;;16.77;8.83;;;;;;;;;;4998797;23;20230;-65
2021/01/17 01:08:11;;;;;;;12.23;6.80;;;-1.00;92.20;;;;;;5025226;28;20183;-66
2021/01/17 01:10:36;;;;;;;11.33;7.70;;;-1.00;92.20;;;;;;5030066;28;20233;-66
2021/01/17 01:13:02;;;;;;;14.03;7.60;;;-0.90;92.00;;;;;;5029508;23;20674;-65
2021/01/17 01:15:28;;;;;;;14.07;8.13;;;-1.00;92.20;;;;;;5026756;28;20615;-66
2021/01/17 01:17:53;;;;;;;14.00;7.20;;;-1.00;92.20;;;;;;4997702;23;20235;-65
2021/01/17 01:20:19;;;;;;;14.63;9.13;;;-0.90;92.20;;;;;;5021849;23;20239;-65
2021/01/17 01:22:45;;;;;;;13.33;6.70;;;-0.90;92.20;;;;;;5024471;28;20318;-65
2021/01/17 01:25:11;;;;;;;12.40;8.17;;;-0.90;91.60;;;;;;5015203;23;20238;-66
2021/01/17 01:27:37;;;;;;;15.10;8.23;;;-0.90;91.40;;;;;;4999467;28;20283;-66
2021/01/17 01:30:04;;;;;;;9.97;6.70;;;-0.90;91.60;;;;;;4996491;23;20244;-65
2021/01/17 01:32:30;;;;;;;15.70;8.87;;;-0.80;91.60;;;;;;5023085;23;20806;-65
2021/01/17 01:34:56;;;;;;;14.20;7.43;;;;;;;;;;5025897;28;20282;-65
2021/01/17 01:37:22;;;;;;;14.37;7.83;;;-0.80;91.10;;;;;;5030024;28;20278;-65
2021/01/17 01:39:48;;;;;;;12.63;7.53;;;-0.90;90.60;;;;;;5016971;23;20228;-65
2021/01/17 01:42:14;;;;;;;13.03;8.97;;;-0.90;91.10;;;;;;5006201;23;20578;-65
2021/01/17 01:44:40;;;;;;;14.50;8.90;;;-0.90;91.00;;;;;;5008878;23;20286;-66
2021/01/17 01:47:14;;;;;;;13.87;7.03;;;-0.90;91.10;;;;;;5026928;23;20652;-66
2021/01/17 01:49:40;;;;;;;13.53;8.00;;;;;;;;;;5011275;23;20231;-66
2021/01/17 01:52:06;;;;;;;15.57;8.90;;;;;;;;;;5020757;23;20243;-65
2021/01/17 01:54:32;;;;;;;11.93;7.10;;;-0.80;90.90;;;;;;5032048;23;20317;-66
2021/01/17 01:56:58;;;;;;;14.43;8.07;;;-0.80;90.60;;;;;;5026260;28;20207;-66
2021/01/17 01:59:23;;;;;;;13.07;7.03;;;;;;;;;;4998870;22;20244;-66
2021/01/17 02:01:49;;;;;;;17.87;9.63;;;-0.80;90.50;;;;;;4989193;28;20547;-66
2021/01/17 02:04:15;;;;;;;18.47;8.90;;;;;;;;;;4968740;28;20208;-66
2021/01/17 02:06:58;;;;;;;15.53;7.13;;;-0.70;90.30;;;;;;5021900;23;20247;-65
2021/01/17 02:09:26;;;;;;;11.03;6.37;;;1.40;90.50;;;;;;4997046;22;20243;-65
2021/01/17 02:12:13;;;;;;;11.83;7.60;;;-0.80;89.80;;;;;;4983664;28;20191;-66
2021/01/17 02:14:39;;;;;;;12.03;6.63;;;;;;;;;;5005224;23;20701;-65
2021/01/17 02:17:07;;;;;;;13.13;8.57;;;-0.80;90.00;;;;;;5019344;22;20314;-65
2021/01/17 02:20:10;;;;;;;14.73;7.57;;;-0.80;90.00;;;;;;5026035;23;20678;-66
2021/01/17 02:23:01;;;;;;;15.23;8.67;;;-0.80;89.90;;;;;;4996079;23;20226;-65
2021/01/17 02:25:35;;;;;;;11.40;7.60;;;-0.80;90.20;;;;;;4975636;23;20229;-66
2021/01/17 02:28:05;;;;;;;14.67;8.43;;;-0.70;89.50;;;;;;5007698;23;20236;-66
2021/01/17 02:30:34;;;;;;;13.67;7.00;;;-0.80;89.70;;;;;;5006870;23;20293;-66
2021/01/17 02:33:26;;;;;;;14.37;8.53;;;-1.00;89.90;;;;;;5006085;28;20538;-66
2021/01/17 02:35:57;;;;;;;18.77;8.07;;;-1.00;90.70;;;;;;4991732;23;20242;-65
2021/01/17 02:38:28;;;;;;;18.03;8.63;;;-1.00;90.70;;;;;;5018119;23;20638;-65
2021/01/17 02:41:18;;;;;;;12.13;7.43;;;-0.90;91.00;;;;;;5024356;28;20214;-66
2021/01/17 02:43:46;;;;;;;16.03;7.83;;;-0.90;90.90;;;;;;5011314;23;20247;-65
2021/01/17 02:46:11;;;;;;;14.63;8.87;;;-0.90;90.80;;;;;;5013236;22;20318;-65
2021/01/17 02:48:37;;;;;;;15.90;8.23;;;-0.90;90.50;;;;;;5005335;22;20246;-66
2021/01/17 02:51:03;;;;;;;21.57;9.33;;;-1.00;90.80;;;;;;5001455;22;20589;-65
2021/01/17 02:53:38;;;;;;;14.23;8.67;;;-1.00;90.80;;;;;;4987913;28;20596;-66
2021/01/17 02:56:09;;;;;;;11.37;6.67;;;-1.00;90.80;;;;;;5009493;22;20239;-65
2021/01/17 02:58:38;;;;;;;19.50;9.37;;;-1.00;90.80;;;;;;5034258;23;20357;-65
2021/01/17 03:01:04;;;;;;;14.20;7.30;;;-1.10;91.10;;;;;;5006692;23;20710;-66
2021/01/17 03:03:37;;;;;;;17.27;6.57;;;-1.20;91.40;;;;;;5005671;22;20649;-65
2021/01/17 03:06:07;;;;;;;12.47;6.53;;;-1.20;92.00;;;;;;5017043;23;20230;-66
2021/01/17 03:08:34;;;;;;;11.47;7.07;;;-1.10;92.20;;;;;;5026322;23;20683;-66
2021/01/17 03:11:00;;;;;;;11.03;6.97;;;-1.20;91.70;;;;;;5023374;28;20675;-64
2021/01/17 03:13:27;;;;;;;8.13;3.90;;;-1.30;91.60;;;;;;5012550;22;20255;-65
2021/01/17 03:15:52;;;;;;;10.63;5.73;;;-1.30;92.10;;;;;;5008249;22;20248;-65
2021/01/17 03:18:18;;;;;;;10.43;7.40;;;-1.30;92.60;;;;;;5005928;28;20215;-64
2021/01/17 03:20:44;;;;;;;11.10;5.23;;;-1.30;92.70;;;;;;5012785;28;20204;-65
2021/01/17 03:23:10;;;;;;;10.27;6.57;;;;;;;;;;4978844;22;20586;-65
2021/01/17 03:25:36;;;;;;;11.03;6.03;;;;;;;;;;4969301;28;20192;-65
2021/01/17 03:28:02;;;;;;;12.00;5.83;;;-1.30;92.50;;;;;;4960513;28;20293;-65
2021/01/17 03:30:27;;;;;;;7.03;4.10;;;-1.30;92.50;;;;;;4976719;23;20240;-65
2021/01/17 03:32:53;;;;;;;15.97;8.60;;;;;;;;;;5000176;28;20215;-65
2021/01/17 03:35:19;;;;;;;12.70;7.90;;;;;;;;;;4978388;23;20232;-65
2021/01/17 03:37:45;;;;;;;9.83;7.03;;;-1.30;92.80;;;;;;4963546;28;20268;-65
2021/01/17 03:40:11;;;;;;;16.47;7.23;;;-1.30;92.70;;;;;;4997557;23;20248;-65
2021/01/17 03:42:36;;;;;;;12.50;8.13;;;-1.20;92.70;;;;;;4969789;23;20652;-65
2021/01/17 03:45:03;;;;;;;10.90;6.40;;;-1.10;92.80;;;;;;5032634;23;20245;-65
2021/01/17 03:47:28;;;;;;;11.37;5.87;;;-1.20;92.10;;;;;;5024840;28;20255;-65
2021/01/17 03:49:54;;;;;;;7.67;4.23;;;;;;;;;;5018505;23;20290;-65
2021/01/17 03:52:20;;;;;;;15.13;7.03;;;;;;;;;;5020916;23;20317;-64
2021/01/17 03:54:46;;;;;;;10.13;7.47;;;;;;;;;;5017470;28;20194;-65
2021/01/17 03:57:12;;;;;;;9.57;6.17;;;-1.20;92.30;;;;;;5027378;28;20197;-65
2021/01/17 03:59:38;;;;;;;10.47;6.23;;;;;;;;;;4992844;23;20640;-65
2021/01/17 04:02:03;;;;;;;16.07;8.70;;;-1.30;92.40;;;;;;5027548;22;20234;-64
2021/01/17 04:04:29;;;;;;;12.67;8.03;;;;;;;;;;5025007;23;20245;-64
2021/01/17 04:06:55;;;;;;;12.53;6.83;;;;;;;;;;5022323;23;20322;-64
2021/01/17 04:09:21;;;;;;;12.63;6.33;;;;;;;;;;5016883;23;20223;-64
2021/01/17 04:11:50;;;;;;;14.37;7.87;;;-1.20;92.80;;;;;;5014735;28;20425;-64
2021/01/17 04:14:16;;;;;;;10.30;7.30;;;-1.10;92.40;;;;;;5019909;23;20223;-64
2021/01/17 04:16:49;;;;;;;11.43;6.83;;;-1.20;92.40;;;;;;5014404;23;20226;-65
2021/01/17 04:19:15;;;;;;;6.73;3.77;;;-1.20;93.00;;;;;;5027142;23;20241;-64
2021/01/17 04:21:41;;;;;;;11.50;6.07;;;-1.30;93.20;;;;;;5013407;23;20235;-64
2021/01/17 04:24:07;;;;;;;12.33;6.70;;;-1.30;93.10;;;;;;5022109;23;20364;-65
2021/01/17 04:26:32;;;;;;;16.43;7.40;;;-1.20;93.50;;;;;;5019672;28;20188;-64
2021/01/17 04:28:58;;;;;;;15.53;10.30;;;;;;;;;;5026187;23;20346;-64
2021/01/17 04:31:24;;;;;;;14.70;9.03;;;-1.20;93.20;;;;;;5008993;22;20639;-64
2021/01/17 04:33:49;;;;;;;14.33;7.53;;;-1.20;93.50;;;;;;5011533;23;20239;-65
2021/01/17 04:36:15;;;;;;;6.53;4.73;;;-1.20;93.50;;;;;;4995105;23;20297;-64
2021/01/17 04:38:40;;;;;;;17.03;9.17;;;-1.20;93.40;;;;;;4973778;23;20220;-64
2021/01/17 04:41:06;;;;;;;14.80;8.40;;;-1.10;93.60;;;;;;4982657;28;20197;-64
2021/01/17 04:43:38;;;;;;;19.40;9.67;;;-1.20;93.10;;;;;;5021041;23;20243;-64
2021/01/17 04:46:04;;;;;;;15.83;6.77;;;-1.20;93.30;;;;;;5000774;28;20223;-64
2021/01/17 04:48:31;;;;;;;16.70;8.57;;;-1.10;93.40;;;;;;5022970;23;20809;-64
2021/01/17 04:51:03;;;;;;;11.97;7.87;;;-1.10;93.10;;;;;;5013562;22;20282;-64
2021/01/17 04:53:32;;;;;;;11.87;7.00;;;-1.10;93.00;;;;;;5001896;28;20884;-64
2021/01/17 04:56:24;;;;;;;9.10;5.27;;;-1.10;93.30;;;;;;5005308;28;20735;-64
2021/01/17 04:59:12;;;;;;;9.63;5.20;;;-1.10;93.30;;;;;;5000245;22;20289;-64
2021/01/17 05:01:46;;;;;;;12.03;8.53;;;-1.10;93.30;;;;;;5002619;22;20373;-65
2021/01/17 05:04:31;;;;;;;14.37;9.37;;;-1.10;93.40;;;;;;5011360;23;20628;-64
2021/01/17 05:06:58;;;;;;;15.90;8.53;;;-1.00;93.50;;;;;;5020827;28;20195;-65
2021/01/17 05:09:30;;;;;;;14.87;10.33;;;-1.00;93.20;;;;;;5001683;23;20222;-65
2021/01/17 05:12:10;;;;;;;14.87;7.97;;;-1.10;93.30;;;;;;5033404;23;20254;-65
2021/01/17 05:14:55;;;;;;;9.80;5.77;;;-1.10;93.20;;;;;;5004719;28;20198;-65
2021/01/17 05:17:21;;;;;;;17.67;8.97;;;;;;;;;;5007299;23;20235;-66
2021/01/17 05:19:47;;;;;;;16.73;7.83;;;-1.10;93.70;;;;;;5004853;28;20258;-65
2021/01/17 05:22:14;;;;;;;10.17;5.97;;;-1.20;93.50;;;;;;5011682;23;20243;-65
2021/01/17 05:24:45;;;;;;;17.50;7.90;;;-1.20;94.30;;;;;;5020098;23;20313;-65
2021/01/17 05:27:11;;;;;;;10.87;7.47;;;-1.10;94.00;;;;;;5021458;28;20724;-64
2021/01/17 05:29:37;;;;;;;16.67;8.87;;;-1.10;94.50;;;;;;5031281;23;20602;-64
2021/01/17 05:32:06;;;;;;;17.97;10.23;;;-1.20;94.20;;;;;;5000454;23;20299;-64
2021/01/17 05:34:32;;;;;;;12.63;7.67;;;-1.10;95.30;;;;;;5002733;28;20246;-64
2021/01/17 05:37:05;;;;;;;15.87;10.67;;;-1.00;95.10;;;;;;5005382;23;20231;-64
2021/01/17 05:39:31;;;;;;;17.23;9.47;;;-1.00;95.40;;;;;;5005596;28;20698;-64
2021/01/17 05:42:07;;;;;;;17.20;9.40;;;-0.90;95.20;;;;;;5017134;23;20289;-64
2021/01/17 05:44:33;;;;;;;13.23;9.50;;;-0.90;95.40;;;;;;5029722;22;20247;-64
2021/01/17 05:47:05;;;;;;;16.60;9.13;;;-0.90;95.20;;;;;;5026728;23;20239;-65
2021/01/17 05:49:31;;;;;;;21.13;8.97;;;-0.90;95.30;;;;;;5014842;23;20306;-65
2021/01/17 05:52:16;;;;;;;20.80;8.53;;;-0.90;95.20;;;;;;5019774;23;20237;-65
2021/01/17 05:54:46;;;;;;;17.77;7.93;;;-1.00;95.60;;;;;;5023704;23;20226;-64
2021/01/17 05:57:13;;;;;;;22.63;10.40;;;-1.00;95.60;;;;;;5001665;23;20223;-65
2021/01/17 05:59:39;;;;;;;11.57;7.77;;;-0.90;95.70;;;;;;5001250;28;20269;-65
2021/01/17 06:02:16;;;;;;;13.63;7.73;;;-0.90;95.60;;;;;;5003392;23;20255;-64
2021/01/17 06:04:47;;;;;;;18.10;8.73;;;-0.90;95.60;;;;;;5020563;23;20804;-64
2021/01/17 06:07:14;;;;;;;10.70;6.00;;;-1.00;95.60;;;;;;5011153;23;20235;-64
2021/01/17 06:09:42;;;;;;;18.87;10.27;;;-1.00;95.60;;;;;;5009469;23;20223;-64
2021/01/17 06:12:09;;;;;;;11.17;6.93;;;-0.90;95.90;;;;;;5009039;23;20275;-64
2021/01/17 06:14:35;;;;;;;11.63;7.63;;;-0.90;95.60;;;;;;5026069;23;20619;-64
2021/01/17 06:17:05;;;;;;;13.93;7.10;;;-1.00;96.10;;;;;;5018984;23;20343;-64
2021/01/17 06:19:38;;;;;;;14.10;8.43;;;-1.00;96.40;;;;;;5001776;28;20583;-64
2021/01/17 06:22:10;;;;;;;17.60;9.60;;;-1.00;96.50;;;;;;5025647;23;20350;-64
2021/01/17 06:24:39;;;;;;;10.10;8.00;;;-0.90;96.50;;;;;;5018867;28;20431;-65
2021/01/17 06:27:07;;;;;;;15.33;8.73;;;-1.10;96.20;;;;;;5001412;23;20229;-65
2021/01/17 06:29:40;;;;;;;18.37;8.90;;;-1.00;96.60;;;;;;4991152;28;20200;-65
2021/01/17 06:32:16;;;;;;;15.93;8.37;;;-1.00;96.70;;;;;;5003449;23;20786;-64
2021/01/17 06:34:49;;;;;;;15.63;8.43;;;-0.90;96.90;;;;;;5001859;28;20185;-64
2021/01/17 06:37:16;;;;;;;18.93;8.60;;;-0.80;96.80;;;;;;5030919;22;20222;-64
2021/01/17 06:39:51;;;;;;;14.73;7.27;;;-0.80;96.70;;;;;;5011901;23;20693;-64
2021/01/17 06:42:18;;;;;;;16.77;8.77;;;-0.90;96.30;;;;;;5005274;23;20233;-65
2021/01/17 06:44:45;;;;;;;15.50;7.63;;;-0.80;96.90;;;;;;5005314;23;20231;-64
2021/01/17 06:47:17;;;;;;;16.13;8.50;;;-0.90;95.90;;;;;;5002038;28;20257;-65
2021/01/17 06:49:43;;;;;;;9.93;6.77;;;0.60;96.60;;;;;;5003589;23;20262;-64
2021/01/17 06:52:09;;;;;;;10.00;4.73;;;-1.00;96.00;;;;;;5012948;23;20322;-64
2021/01/17 06:54:47;;;;;;;9.33;5.87;;;-1.00;95.90;;;;;;4998328;28;20198;-64
2021/01/17 06:57:13;;;;;;;11.63;5.37;;;;;;;;;;5021791;23;20262;-65
2021/01/17 06:59:40;;;;;;;13.73;7.60;;;-1.00;95.60;;;;;;5015300;28;20685;-65
2021/01/17 07:02:15;;;;;;;20.27;8.50;;;-0.90;95.90;;;;;;4996808;23;20281;-64
2021/01/17 07:05:00;;;;;;;16.97;8.97;;;-0.90;96.10;;;;;;5030038;23;20348;-64
2021/01/17 07:07:56;;;;;;;14.43;7.90;;;-0.90;95.80;;;;;;5023556;23;20243;-65
2021/01/17 07:10:23;;;;;;;14.17;8.07;;;-0.90;95.60;;;;;;5031913;23;20247;-64
2021/01/17 07:13:05;;;;;;;11.87;8.33;;;-0.90;95.60;;;;;;4991786;23;20349;-64
2021/01/17 07:15:34;;;;;;;16.17;7.83;;;-0.80;95.70;;;;;;5006073;22;20240;-64
2021/01/17 07:18:10;;;;;;;13.80;6.83;;;-0.90;95.60;;;;;;4992116;22;20247;-64
2021/01/17 07:20:48;;;;;;;10.37;7.93;;;-0.90;95.90;;;;;;4995658;23;20231;-64
2021/01/17 07:23:15;;;;;;;11.27;5.43;;;-1.00;95.60;;;;;;5004041;23;20358;-66
2021/01/17 07:25:45;;;;;;;9.73;4.47;;;-1.00;95.70;;;;;;5022240;23;20245;-64
2021/01/17 07:28:11;;;;;;;18.90;9.63;;;;;;;;;;5019028;23;20270;-65
2021/01/17 07:30:44;;;;;;;13.10;7.77;;;-0.90;96.00;;;;;;5012912;28;20669;-65
2021/01/17 07:33:11;;;;;;;14.80;8.07;;;-1.00;95.90;;;;;;5011270;28;20250;-64
2021/01/17 07:35:42;;;;;;;11.23;6.37;;;-1.00;96.20;;;;;;5013136;22;20227;-65
2021/01/17 07:38:15;;;;;;;12.53;5.63;;;-1.00;96.20;;;;;;5018316;23;20259;-64
2021/01/17 07:40:53;;;;;;;9.90;7.33;;;-1.00;96.50;;;;;;5021275;28;20195;-65
2021/01/17 07:43:28;;;;;;;14.53;8.50;;;-0.90;96.50;;;;;;5040281;23;20236;-66
2021/01/17 07:45:56;;;;;;;8.10;4.50;;;-1.10;96.00;;;;;;5086211;22;20660;-65
2021/01/17 07:48:22;;;;;;;13.30;7.67;;;-1.00;96.50;;;;;;5023100;28;20190;-65
2021/01/17 07:50:50;;;;;;;17.87;9.03;;;-1.00;96.40;;;;;;5014287;23;20235;-66
2021/01/17 07:53:39;;;;;;;14.80;7.60;;;-0.90;96.60;;;;;;5033347;28;20672;-65
2021/01/17 07:56:13;;;;;;;9.60;7.80;;;-1.00;96.40;;;;;;5006263;23;20238;-65
2021/01/17 07:58:47;;;;;;;11.03;6.27;;;-0.90;96.70;;;;;;5037119;22;20284;-65
2021/01/17 08:01:31;;;;;;;15.47;8.87;;;-0.80;96.50;;;;;;5028319;23;20234;-65
2021/01/17 08:04:17;;;;;;;18.03;9.00;;;-0.80;96.40;;;;;;5027129;28;20242;-65
2021/01/17 08:06:45;;;;;;;11.57;7.10;;;-0.70;96.40;;;;;;5004376;22;20319;-65
2021/01/17 08:09:15;;;;;;;16.00;7.77;;;-0.70;96.20;;;;;;5000019;23;20236;-66
2021/01/17 08:11:56;;;;;;;14.00;8.83;;;-0.70;95.70;;;;;;5026063;23;20318;-65
2021/01/17 08:14:32;;;;;;;12.23;8.10;;;-0.70;95.40;;;;;;5051035;23;20635;-65
2021/01/17 08:17:15;;;;;;;4.57;2.70;;;0.00;94.50;;;;;;5005619;22;20585;-65
2021/01/17 08:19:45;;;;;;;19.10;8.77;;;-0.30;95.00;;;;;;5018181;22;20790;-65
2021/01/17 08:22:17;;;;;;;10.23;5.53;;;-0.70;94.70;;;;;;5016146;28;20314;-65
2021/01/17 08:24:47;;;;;;;12.87;6.33;;;-0.70;94.80;;;;;;5029706;23;20234;-67
2021/01/17 08:27:34;;;;;;;14.87;8.10;;;-0.60;94.70;;;;;;5020988;28;20187;-65
2021/01/17 08:30:02;;;;;;;18.83;9.37;;;-0.70;94.60;;;;;;5021933;23;20583;-65
2021/01/17 08:32:44;;;;;;;15.73;10.63;;;-0.50;95.00;;;;;;5010421;28;20195;-65
2021/01/17 08:35:23;;;;;;;16.83;8.97;;;-0.60;95.00;;;;;;5017085;23;20236;-65
2021/01/17 08:37:55;;;;;;;15.27;7.60;;;-0.60;95.00;;;;;;5020593;23;20633;-65
2021/01/17 08:40:27;;;;;;;17.63;9.40;;;-0.50;95.00;;;;;;5016452;23;20619;-65
2021/01/17 08:43:12;;;;;;;14.77;9.63;;;-0.60;94.50;;;;;;4997052;28;20214;-65
2021/01/17 08:45:48;;;;;;;12.57;7.70;;;-0.60;94.80;;;;;;4988769;23;20253;-65
2021/01/17 08:48:17;;;;;;;21.27;11.23;;;-0.50;95.40;;;;;;5025375;23;20325;-65
2021/01/17 08:50:51;;;;;;;16.30;8.63;;;-0.50;94.80;;;;;;5008649;22;21814;-65
2021/01/17 08:53:31;;;;;;;15.63;9.20;;;-0.40;94.70;;;;;;5008038;23;20235;-65
2021/01/17 08:56:18;;;;;;;13.07;6.93;;;-0.60;94.40;;;;;;4998759;22;20239;-65
2021/01/17 08:58:46;;;;;;;9.50;6.57;;;-0.60;94.90;;;;;;4986077;22;20259;-67
2021/01/17 09:01:16;;;;;;;11.23;6.43;;;-0.60;94.80;;;;;;4969625;28;20185;-65
2021/01/17 09:03:42;;;;;;;8.33;4.13;;;-0.50;94.90;;;;;;4995934;23;20887;-65
2021/01/17 09:06:07;;;;;;;15.90;8.33;;;-0.60;95.10;;;;;;5005794;22;20258;-65
2021/01/17 09:08:34;;;;;;;14.53;7.67;;;-0.50;95.70;;;;;;5030448;23;20226;-65
2021/01/17 09:11:01;;;;;;;16.10;8.07;;;-0.40;96.10;;;;;;5002975;22;20247;-65
2021/01/17 09:13:29;;;;;;;18.07;9.37;;;-0.40;95.90;;;;;;4992983;22;20243;-67
2021/01/17 09:16:01;;;;;;;11.47;6.53;;;-0.40;95.10;;;;;;4986989;28;20203;-66
2021/01/17 09:18:35;;;;;;;9.67;6.53;;;-0.50;94.40;;;;;;5017882;22;20245;-67
2021/01/17 09:21:01;;;;;;;26.27;8.53;;;-0.40;94.60;;;;;;5479484;22;20236;-68
2021/01/17 09:28:39;;;;;;;18.77;10.23;;;;;;;;;;5155914;22;20666;-69
2021/01/17 09:49:15;;;;;;;35.13;10.73;;;-0.10;93.70;;;;;;5762517;22;20237;-67
2021/01/17 09:59:27;;;;;;;34.27;9.97;;;0.40;92.80;;;;;;5605875;22;20218;-68
2021/01/17 10:01:53;;;;;;;33.47;11.30;;;0.30;91.80;;;;;;5681722;23;20246;-68
2021/01/17 10:19:48;;;;;;;33.97;9.90;;;;;;;;;;5815082;22;20225;-68
2021/01/17 10:30:00;;;;;;;42.57;10.37;;;0.00;91.60;;;;;;6061589;22;21848;-69
2021/01/17 10:32:29;;;;;;;25.30;7.07;;;0.00;91.80;;;;;;5733766;22;20218;-65
2021/01/17 10:40:06;;;;;;;21.63;9.20;;;0.10;92.40;;;;;;5672268;22;20253;-66
2021/01/17 11:06:16;;;;;;;20.27;5.33;;;0.40;88.50;;;;;;5670290;22;20242;-71
2021/01/17 11:29:29;;;;;;;17.20;8.40;;;0.50;89.70;;;;;;5964732;22;20281;-70
2021/01/17 11:39:42;;;;;;;7.40;4.60;;;0.50;88.70;;;;;;5338508;22;20238;-71
2021/01/17 11:55:07;;;;;;;24.07;11.00;;;0.70;88.70;;;;;;5777398;22;20539;-73
2021/01/17 11:57:33;;;;;;;44.50;11.60;;;;;;;;;;5805817;22;20717;-73
2021/01/17 12:10:14;;;;;;;42.50;10.20;;;;;;;;;;6190903;22;20203;-72
2021/01/17 12:36:04;;;;;;;37.33;10.97;;;0.90;90.20;;;;;;6056274;22;21966;-74
2021/01/17 12:38:30;;;;;;;24.97;6.70;;;;;;;;;;5349347;22;20222;-73
2021/01/17 12:59:50;;;;;;;34.77;7.70;;;0.80;88.80;;;;;;6035734;22;21477;-73
2021/01/17 13:12:39;;;;;;;24.47;10.27;;;;;;;;;;5879979;22;20230;-73
2021/01/17 13:40:54;;;;;;;21.43;10.33;;;;;;;;;;5765807;22;20249;-73
2021/01/17 13:45:56;;;;;;;26.13;5.77;;;0.80;89.20;;;;;;6020406;22;20376;-73
2021/01/17 13:50:58;;;;;;;42.83;8.37;;;0.80;90.00;;;;;;6062825;22;21580;-72
2021/01/17 14:14:03;;;;;;;25.83;7.60;;;0.80;90.90;;;;;;5569731;22;20242;-73
2021/01/17 14:26:52;;;;;;;34.97;12.50;;;1.10;91.70;;;;;;5995782;22;21582;-72
2021/01/17 14:39:40;;;;;;;25.00;12.23;;;;;;;;;;5964513;22;20253;-72
2021/01/17 14:42:06;;;;;;;38.20;12.10;;;1.10;91.00;;;;;;5889204;23;20262;-72
2021/01/17 14:47:09;;;;;;;33.90;11.00;;;1.10;91.30;;;;;;5848296;22;20283;-72
2021/01/17 14:54:46;;;;;;;44.67;12.77;;;;;;;;;;6059731;22;21823;-74
2021/01/17 15:20:34;;;;;;;21.73;10.03;;;;;;;;;;5946340;23;20226;-70
2021/01/17 15:38:25;;;;;;;21.57;10.47;;;;;;;;;;5995360;23;20247;-72
2021/01/17 15:46:02;;;;;;;48.27;12.37;;;;;;;;;;6128824;22;21627;-71
2021/01/17 15:53:40;;;;;;;16.27;9.47;;;0.90;93.00;;;;;;5107986;23;20685;-70
2021/01/17 15:56:06;;;;;;;17.33;9.67;;;;;;;;;;5042635;28;20206;-71
2021/01/17 16:03:43;;;;;;;20.27;8.40;;;1.00;92.70;;;;;;5534759;22;20245;-72
2021/01/17 16:06:12;;;;;;;20.47;11.03;;;;;;;;;;5218845;23;20234;-69
2021/01/17 16:13:49;;;;;;;19.40;10.67;;;0.90;93.00;;;;;;5731069;22;20290;-70
2021/01/17 16:21:28;;;;;;;10.60;5.97;;;;;;;;;;5291801;22;20261;-71
2021/01/17 16:26:29;;;;;;;18.77;9.37;;;;;;;;;;5736583;22;20708;-70
2021/01/17 16:28:55;;;;;;;21.67;10.43;;;0.70;94.60;;;;;;5062748;23;20222;-71
2021/01/17 16:31:21;;;;;;;31.20;9.53;;;0.70;94.80;;;;;;5593202;22;20206;-71
2021/01/17 16:44:10;;;;;;;42.90;12.70;;;;;;;;;;5806770;22;20314;-71
2021/01/17 16:46:37;;;;;;;35.70;11.90;;;0.70;94.60;;;;;;5791534;23;20198;-71
2021/01/17 16:49:04;;;;;;;11.30;7.13;;;0.60;94.80;;;;;;5533374;23;20230;-71
2021/01/17 16:54:07;;;;;;;41.30;11.67;;;0.70;94.90;;;;;;5504056;22;20672;-71
2021/01/17 16:56:32;;;;;;;22.90;9.33;;;0.70;95.00;;;;;;5762819;23;20232;-72
2021/01/17 16:58:58;;;;;;;16.30;8.40;;;0.60;95.10;;;;;;5032819;22;20219;-71
2021/01/17 17:01:24;;;;;;;17.07;9.23;;;0.60;95.30;;;;;;5092469;22;20343;-71
2021/01/17 17:14:13;;;;;;;24.03;9.80;;;0.80;95.00;;;;;;5234846;22;20223;-72
2021/01/17 17:16:39;;;;;;;16.17;9.53;;;0.70;95.50;;;;;;5066272;23;20223;-71
2021/01/17 17:19:06;;;;;;;17.57;11.67;;;0.70;95.40;;;;;;5272497;23;20247;-71
2021/01/17 17:21:33;;;;;;;4.67;3.17;;;0.70;95.70;;;;;;5383584;23;20226;-71
2021/01/17 17:24:06;;;;;;;20.03;10.10;;;0.70;96.30;;;;;;5024082;28;20699;-71
2021/01/17 17:26:37;;;;;;;26.73;15.83;;;0.70;96.30;;;;;;5131323;23;20222;-70
2021/01/17 17:29:07;;;;;;;36.97;18.27;;;0.80;96.30;;;;;;5026958;28;20190;-69
2021/01/17 17:31:57;;;;;;;25.33;7.10;;;0.80;96.30;;;;;;5602160;22;20632;-70
2021/01/17 17:34:23;;;;;;;21.57;11.80;;;1.70;96.70;;;;;;5179165;22;20683;-70
2021/01/17 17:36:49;;;;;;;21.63;13.13;;;0.80;96.30;;;;;;5109610;22;20264;-70
2021/01/17 17:39:18;;;;;;;17.17;10.07;;;0.80;96.30;;;;;;5493679;22;20938;-67
2021/01/17 17:41:46;;;;;;;19.43;11.33;;;0.80;96.30;;;;;;5047091;28;20186;-68
2021/01/17 17:49:24;;;;;;;21.37;11.70;;;;;;;;;;5714923;22;20240;-86
2021/01/17 17:51:51;;;;;;;15.03;9.40;;;;;;;;;;5082941;28;20190;-89
2021/01/17 17:54:17;;;;;;;10.17;4.13;;;;;;;;;;5058438;28;20668;-91
2021/01/17 17:56:43;;;;;;;15.20;10.53;;;;;;;;;;5063558;28;20622;-91
2021/01/17 17:59:10;;;;;;;14.10;6.60;;;0.70;97.70;;;;;;5058705;28;20245;-91
2021/01/17 18:01:46;;;;;;;19.10;10.27;;;;;;;;;;5058965;28;20208;-89
2021/01/17 18:04:13;;;;;;;6.33;5.30;;;0.80;97.60;;;;;;5067353;28;20189;-90
2021/01/17 18:06:39;;;;;;;21.30;12.20;;;;;;;;;;5064017;28;20237;-91
2021/01/17 18:09:06;;;;;;;15.73;8.87;;;;;;;;;;5080217;28;20222;-90
2021/01/17 18:11:32;;;;;;;19.00;11.03;;;;;;;;;;5059850;28;20220;-90
2021/01/17 18:13:58;;;;;;;14.37;7.17;;;;;;;;;;5065950;28;20209;-90
2021/01/17 18:16:24;;;;;;;10.50;6.50;;;;;;;;;;5067663;28;20280;-90
2021/01/17 18:18:50;;;;;;;18.87;10.13;;;;;;;;;;5062145;28;20225;-92
2021/01/17 18:21:18;;;;;;;4.77;4.30;;;;;;;;;;5042348;28;20222;-91
2021/01/17 18:23:44;;;;;;;21.40;10.77;;;;;;;;;;5042311;28;20187;-91
2021/01/17 18:26:13;;;;;;;9.63;6.37;;;;;;;;;;5021050;28;20180;-91
2021/01/17 18:28:42;;;;;;;9.17;3.87;;;;;;;;;;5039870;28;20213;-90
2021/01/17 18:31:08;;;;;;;13.00;7.53;;;;;;;;;;5016495;28;20207;-90
2021/01/17 18:33:35;;;;;;;10.20;4.77;;;;;;;;;;5023831;28;20243;-89
2021/01/17 18:36:02;;;;;;;10.43;4.43;;;;;;;;;;5037747;28;20206;-90
2021/01/17 18:38:28;;;;;;;9.47;5.17;;;;;;;;;;5040478;28;20239;-90
2021/01/17 18:40:54;;;;;;;9.43;6.57;;;;;;;;;;5042059;28;20218;-91
2021/01/17 18:43:55;;;;;;;15.07;12.13;;;;;;;;;;5025540;28;20198;-92
2021/01/17 18:46:40;;;;;;;11.03;6.27;;;0.80;98.40;;;;;;4967672;28;20231;-92
2021/01/17 18:49:07;;;;;;;13.73;8.50;;;;;;;;;;4984374;28;20284;-92
2021/01/17 18:51:36;;;;;;;16.63;8.53;;;;;;;;;;4968092;28;20209;-92
2021/01/17 18:54:02;;;;;;;12.77;9.00;;;;;;;;;;4991753;28;20216;-90
2021/01/17 18:57:09;;;;;;;3.50;2.30;;;0.90;98.50;;;;;;4997338;28;20288;-90
2021/01/17 18:59:44;;;;;;;5.57;3.37;;;;;;;;;;4987256;28;20275;-89
2021/01/17 19:02:15;;;;;;;7.90;4.03;;;0.90;98.70;;;;;;4986804;28;20185;-88
2021/01/17 19:04:41;;;;;;;12.67;7.87;;;0.90;98.80;;;;;;4988929;28;20177;-90
2021/01/17 19:07:07;;;;;;;21.10;11.70;;;;;;;;;;5002939;28;20308;-90
2021/01/17 19:09:33;;;;;;;15.63;9.00;;;0.90;98.80;;;;;;4998671;28;20181;-91
2021/01/17 19:12:05;;;;;;;8.00;7.30;;;1.00;98.70;;;;;;4999593;28;20197;-90
2021/01/17 19:14:42;;;;;;;8.53;7.00;;;0.90;98.60;;;;;;4952724;28;20216;-92
2021/01/17 19:17:12;;;;;;;8.30;6.13;;;1.00;98.60;;;;;;5036868;28;20598;-90